Time;durP1;ratioP1;P1;durP2;ratioP2;P2;SDS_P1;SDS_P2;PMS_P1;PMS_P2;Temp;Humidity;BMP_temperature;BMP_pressure;BME280_temperature;BME280_humidity;BME280_pressure;Samples;Min_cycle;Max_cycle;Signal;HPM_P1;HPM_P2
2021/08/01 00:00:43;;;;;;;4.60;2.70;;;;;;;11.78;86.36;90297.25;4979739;28;20092;-86
2021/08/01 00:03:15;;;;;;;6.80;2.83;;;;;;;11.86;85.19;90293.66;4997308;28;20026;-85
2021/08/01 00:05:50;;;;;;;6.75;2.88;;;;;;;11.76;85.39;90290.84;4996510;28;20411;-85
2021/08/01 00:08:24;;;;;;;;;;;;;;;11.77;85.34;90295.75;5014022;28;20026;-86
2021/08/01 00:11:02;;;;;;;8.05;3.20;;;;;;;11.72;85.37;90290.81;5013389;28;19909;-85
2021/08/01 00:13:38;;;;;;;4.72;2.50;;;;;;;11.56;85.97;90290.94;4981117;28;20034;-86
2021/08/01 00:16:10;;;;;;;6.35;2.72;;;;;;;11.62;86.56;90296.59;4980255;28;20490;-85
2021/08/01 00:18:45;;;;;;;5.25;2.65;;;;;;;11.64;85.45;90297.03;4980464;28;20033;-85
2021/08/01 00:21:17;;;;;;;5.78;2.75;;;;;;;11.67;84.17;90293.72;4980041;28;20061;-85
2021/08/01 00:23:49;;;;;;;6.68;3.10;;;;;;;11.81;83.29;90293.19;4995643;28;20044;-86
2021/08/01 00:26:26;;;;;;;5.78;3.20;;;;;;;11.62;85.25;90286.16;4996314;28;20112;-85
2021/08/01 00:28:55;;;;;;;5.95;3.00;;;;;;;11.60;84.70;90283.16;4995701;28;20403;-86
2021/08/01 00:31:25;;;;;;;5.07;2.88;;;;;;;11.48;85.90;90279.63;4979385;28;20030;-86
2021/08/01 00:33:59;;;;;;;7.60;2.85;;;;;;;11.58;85.66;90285.34;4996326;28;20018;-85
2021/08/01 00:36:37;;;;;;;8.70;3.30;;;;;;;11.48;84.60;90271.81;5013114;28;20022;-86
2021/08/01 00:39:11;;;;;;;7.63;2.97;;;;;;;11.40;85.34;90280.59;4996724;28;20060;-87
2021/08/01 00:41:48;;;;;;;6.82;2.40;;;;;;;11.46;84.99;90281.81;4980680;28;20033;-86
2021/08/01 00:44:26;;;;;;;5.28;2.90;;;;;;;11.42;86.29;90281.03;4964388;28;20045;-86
2021/08/01 00:46:59;;;;;;;8.52;3.17;;;;;;;11.48;85.93;90287.47;4995708;28;20026;-86
2021/08/01 00:49:31;;;;;;;5.25;3.05;;;;;;;11.41;85.47;90286.56;4995391;28;20478;-86
2021/08/01 00:52:09;;;;;;;6.47;2.72;;;;;;;11.49;85.50;90283.75;4974805;28;20030;-85
2021/08/01 00:54:52;;;;;;;5.45;2.90;;;;;;;11.51;86.04;90285.25;4961043;28;20022;-86
2021/08/01 00:57:22;;;;;;;5.72;3.00;;;;;;;11.45;85.56;90290.75;4975584;28;20026;-85
2021/08/01 00:59:55;;;;;;;4.63;3.28;;;;;;;11.41;85.94;90291.78;4975585;28;20023;-86
2021/08/01 01:02:39;;;;;;;4.55;2.55;;;;;;;11.45;85.73;90288.16;4975813;28;20037;-86
2021/08/01 01:05:28;;;;;;;4.90;2.88;;;;;;;11.43;85.99;90284.38;5052618;23;20045;-84
2021/08/01 01:08:17;;;;;;;5.85;2.92;;;;;;;11.39;86.79;90289.53;5036523;28;20517;-85
2021/08/01 01:10:54;;;;;;;5.18;2.63;;;;;;;11.42;87.12;90282.88;5018472;28;20019;-84
2021/08/01 01:13:33;;;;;;;7.55;3.28;;;;;;;11.47;86.47;90272.13;5003366;28;20059;-84
2021/08/01 01:16:11;;;;;;;8.82;3.10;;;;;;;11.47;86.30;90278.09;4983918;28;20022;-85
2021/08/01 01:18:51;;;;;;;5.97;2.97;;;;;;;11.33;86.86;90275.25;4984618;28;20030;-84
2021/08/01 01:21:51;;;;;;;5.35;3.20;;;;;;;11.34;86.98;90279.41;4990537;28;20054;-83
2021/08/01 01:24:30;;;;;;;6.90;3.08;;;;;;;11.39;86.85;90279.09;5013580;28;20030;-84
2021/08/01 01:27:13;;;;;;;6.38;3.10;;;;;;;11.44;86.57;90278.03;4992898;28;20023;-83
2021/08/01 01:29:52;;;;;;;10.32;2.95;;;;;;;11.44;86.17;90270.97;4988656;28;20085;-83
2021/08/01 01:32:46;;;;;;;3.95;2.50;;;;;;;11.43;86.31;90276.56;4976380;28;20022;-83
2021/08/01 01:35:21;;;;;;;4.70;3.00;;;;;;;11.44;86.29;90276.19;4976059;28;20050;-83
2021/08/01 01:37:58;;;;;;;6.03;3.13;;;;;;;11.48;86.87;90271.81;4961583;28;20030;-83
2021/08/01 01:40:33;;;;;;;5.47;3.17;;;;;;;11.50;86.76;90263.63;4961418;28;20030;-84
2021/08/01 01:43:09;;;;;;;4.70;2.80;;;;;;;11.48;86.44;90266.59;4977717;28;20034;-84
2021/08/01 01:45:39;;;;;;;5.88;3.22;;;;;;;11.51;86.24;90269.59;4978459;28;20394;-83
2021/08/01 01:48:11;;;;;;;5.25;3.05;;;;;;;11.46;86.66;90273.25;4971975;28;20625;-82
2021/08/01 01:50:41;;;;;;;4.78;3.28;;;;;;;11.43;86.18;90266.88;4980497;28;20071;-83
2021/08/01 01:53:09;;;;;;;5.15;3.50;;;;;;;11.31;87.75;90259.22;4980913;28;20088;-83
2021/08/01 01:55:45;;;;;;;5.47;3.00;;;;;;;11.31;87.29;90256.63;4996754;28;20112;-85
2021/08/01 01:58:27;;;;;;;4.43;2.80;;;;;;;11.35;86.60;90260.03;4998174;28;20030;-84
2021/08/01 02:01:02;;;;;;;7.30;3.65;;;;;;;11.38;85.28;90248.91;4997995;28;20113;-84
2021/08/01 02:03:40;;;;;;;3.95;2.78;;;;;;;11.39;86.00;90247.03;4997674;28;20677;-84
2021/08/01 02:06:21;;;;;;;7.80;2.95;;;;;;;11.41;86.69;90250.81;4993929;28;20026;-84
2021/08/01 02:09:28;;;;;;;5.97;3.08;;;;;;;11.36;85.82;90245.88;4963409;28;20034;-84
2021/08/01 02:12:08;;;;;;;5.53;2.92;;;;;;;11.26;86.37;90243.84;4995017;28;20030;-84
2021/08/01 02:15:03;;;;;;;5.95;3.25;;;;;;;11.24;87.21;90246.06;4993794;28;20494;-84
2021/08/01 02:17:58;;;;;;;5.75;3.40;;;;;;;11.26;87.89;90249.06;4993138;28;20040;-85
2021/08/01 02:20:28;;;;;;;;;;;;;;;11.36;86.39;90248.47;4981992;28;20058;-83
2021/08/01 02:23:01;;;;;;;7.72;3.17;;;;;;;11.23;87.09;90250.50;4978759;28;19909;-85
2021/08/01 02:25:37;;;;;;;8.27;3.30;;;;;;;11.25;87.31;90250.91;4963330;28;20121;-84
2021/08/01 02:28:10;;;;;;;6.55;3.50;;;;;;;11.28;86.55;90257.31;4964219;28;20466;-85
2021/08/01 02:30:44;;;;;;;5.05;3.05;;;;;;;11.38;85.96;90259.34;4996234;28;20032;-84
2021/08/01 02:33:22;;;;;;;5.35;3.17;;;;;;;11.38;86.19;90261.94;4971039;28;20090;-82
2021/08/01 02:36:10;;;;;;;4.72;2.78;;;;;;;11.44;85.99;90275.44;4990112;28;20513;-83
2021/08/01 02:38:42;;;;;;;4.00;2.80;;;;;;;11.29;87.20;90268.50;4963097;28;20483;-83
2021/08/01 02:41:22;;;;;;;4.32;2.80;;;;;;;11.32;87.19;90259.97;4978198;28;20038;-83
2021/08/01 02:43:51;;;;;;;4.53;2.97;;;;;;;11.30;87.65;90264.78;4986058;28;20018;-84
2021/08/01 02:46:27;;;;;;;6.80;3.10;;;;;;;11.33;87.19;90274.50;5000507;28;20033;-83
2021/08/01 02:49:02;;;;;;;4.97;3.30;;;;;;;11.28;87.27;90267.75;5002097;28;20037;-84
2021/08/01 02:51:32;;;;;;;5.97;2.97;;;;;;;11.24;86.71;90264.31;4985771;28;20498;-83
2021/08/01 02:54:03;;;;;;;4.03;2.80;;;;;;;11.24;87.29;90257.25;4985876;28;20037;-82
2021/08/01 02:56:37;;;;;;;5.60;3.20;;;;;;;11.16;87.27;90260.81;5001810;28;20018;-83
2021/08/01 02:59:13;;;;;;;5.82;3.25;;;;;;;11.06;88.04;90265.84;4985532;28;20025;-83
2021/08/01 03:01:47;;;;;;;6.40;3.10;;;;;;;11.00;87.96;90268.00;4986246;28;20041;-82
2021/08/01 03:04:23;;;;;;;4.72;3.13;;;;;;;11.11;87.55;90265.56;5002049;28;20038;-83
2021/08/01 03:06:57;;;;;;;5.10;2.80;;;;;;;11.14;86.58;90262.28;4986195;28;20034;-83
2021/08/01 03:09:31;;;;;;;4.80;2.65;;;;;;;11.03;87.15;90267.31;4987059;28;20063;-83
2021/08/01 03:12:17;;;;;;;5.10;3.00;;;;;;;11.07;87.01;90260.28;5002193;28;20409;-83
2021/08/01 03:14:53;;;;;;;6.63;2.80;;;;;;;11.08;87.63;90264.41;5003431;28;20029;-84
2021/08/01 03:17:25;;;;;;;6.05;2.97;;;;;;;11.07;88.24;90262.16;4986169;28;20040;-84
2021/08/01 03:20:01;;;;;;;5.70;2.92;;;;;;;10.98;87.99;90270.94;4986022;28;20080;-84
2021/08/01 03:22:38;;;;;;;4.22;2.92;;;;;;;11.05;88.36;90270.31;5003236;28;20030;-82
2021/08/01 03:25:16;;;;;;;4.38;2.72;;;;;;;11.01;88.80;90264.28;5001649;28;20029;-83
2021/08/01 03:27:52;;;;;;;3.75;2.70;;;;;;;11.09;88.32;90267.75;5002186;28;20022;-83
2021/08/01 03:30:28;;;;;;;4.63;2.72;;;;;;;11.14;87.54;90262.28;4986642;28;20060;-83
2021/08/01 03:33:02;;;;;;;6.78;2.92;;;;;;;11.13;87.73;90269.34;5002758;28;20037;-83
2021/08/01 03:35:33;;;;;;;3.60;2.85;;;;;;;11.07;88.40;90269.97;4986731;28;20057;-83
2021/08/01 03:38:09;;;;;;;4.82;2.90;;;;;;;11.00;87.60;90268.00;5001081;28;20109;-84
2021/08/01 03:40:42;;;;;;;5.80;2.67;;;;;;;10.84;87.54;90275.88;5002287;28;20030;-84
2021/08/01 03:43:20;;;;;;;5.10;2.47;;;;;;;10.83;88.39;90271.78;5002785;28;20041;-84
2021/08/01 03:45:55;;;;;;;3.03;2.42;;;;;;;10.82;87.42;90277.34;4988429;28;20033;-83
2021/08/01 03:48:24;;;;;;;2.88;2.33;;;;;;;10.74;87.69;90279.03;5003792;28;20022;-83
2021/08/01 03:51:01;;;;;;;4.90;2.58;;;;;;;10.69;88.22;90274.88;5003009;28;20482;-83
2021/08/01 03:53:38;;;;;;;3.42;2.35;;;;;;;10.84;88.25;90275.88;5004510;28;20053;-83
2021/08/01 03:56:09;;;;;;;2.72;2.10;;;;;;;10.92;87.94;90285.38;5019457;28;20402;-83
2021/08/01 03:58:47;;;;;;;3.15;2.42;;;;;;;10.87;88.29;90277.81;5009599;28;20014;-83
2021/08/01 04:01:20;;;;;;;4.88;2.70;;;;;;;10.91;88.39;90281.22;5000073;28;20060;-84
2021/08/01 04:03:54;;;;;;;3.47;2.05;;;;;;;10.92;87.22;90268.97;4999599;28;20030;-83
2021/08/01 04:06:29;;;;;;;2.30;1.80;;;;;;;10.88;87.29;90258.47;5017715;28;20029;-83
2021/08/01 04:09:01;;;;;;;3.10;2.20;;;;;;;10.93;87.40;90263.41;4999206;28;20045;-83
2021/08/01 04:11:39;;;;;;;4.07;2.38;;;;;;;10.88;89.11;90261.06;4999767;28;20095;-83
2021/08/01 04:14:15;;;;;;;3.22;2.30;;;;;;;10.92;87.83;90256.69;5000794;28;20104;-84
2021/08/01 04:16:56;;;;;;;4.43;2.00;;;;;;;10.93;87.86;90260.03;5016862;28;20080;-84
2021/08/01 04:19:27;;;;;;;3.22;1.98;;;;;;;10.90;88.98;90252.91;4999698;28;20490;-84
2021/08/01 04:22:06;;;;;;;3.70;2.20;;;;;;;10.82;89.08;90262.47;5008434;28;20025;-84
2021/08/01 04:24:42;;;;;;;2.95;1.73;;;;;;;10.89;88.93;90261.84;4996636;28;20022;-83
2021/08/01 04:27:18;;;;;;;3.15;1.58;;;;;;;10.85;88.68;90253.97;5000208;28;20029;-84
2021/08/01 04:29:53;;;;;;;2.42;1.50;;;;;;;10.77;87.88;90265.31;4968455;28;20089;-84
2021/08/01 04:32:31;;;;;;;2.40;1.70;;;;;;;10.74;88.08;90266.78;4983628;28;20030;-84
2021/08/01 04:35:01;;;;;;;4.43;2.17;;;;;;;10.75;89.18;90267.53;5016718;28;20045;-84
2021/08/01 04:37:35;;;;;;;3.40;2.53;;;;;;;10.72;89.85;90258.53;5000594;28;20049;-84
2021/08/01 04:40:15;;;;;;;4.75;2.50;;;;;;;10.79;89.67;90252.72;5001251;28;20025;-84
2021/08/01 04:42:53;;;;;;;2.40;1.92;;;;;;;10.85;89.30;90255.78;5019097;28;20026;-84
2021/08/01 04:45:28;;;;;;;3.28;1.90;;;;;;;10.85;89.45;90251.34;5009045;28;20048;-83
2021/08/01 04:48:05;;;;;;;3.05;1.70;;;;;;;10.90;88.27;90253.66;5011372;28;20041;-84
2021/08/01 04:50:43;;;;;;;3.45;1.77;;;;;;;11.07;87.01;90264.75;4998423;28;20069;-82
2021/08/01 04:53:22;;;;;;;2.15;1.65;;;;;;;11.05;86.64;90259.13;5000405;28;20014;-82
2021/08/01 04:55:55;;;;;;;3.00;2.08;;;;;;;10.95;86.22;90266.44;5018810;28;20026;-83
2021/08/01 04:58:24;;;;;;;2.63;1.88;;;;;;;10.83;87.98;90250.19;4981192;28;20030;-83
2021/08/01 05:00:58;;;;;;;3.95;2.00;;;;;;;10.89;87.81;90254.03;4996857;28;20121;-82
2021/08/01 05:03:36;;;;;;;5.47;2.22;;;;;;;10.88;87.47;90261.06;4996361;28;20034;-82
2021/08/01 05:06:12;;;;;;;3.67;2.25;;;;;;;10.81;87.55;90250.50;4982049;28;20044;-83
2021/08/01 05:08:50;;;;;;;3.35;2.30;;;;;;;10.97;86.21;90251.19;4981948;28;20037;-81
2021/08/01 05:11:22;;;;;;;4.00;1.92;;;;;;;11.06;85.45;90250.97;4981462;28;20030;-83
2021/08/01 05:13:56;;;;;;;3.17;2.00;;;;;;;11.06;84.96;90260.63;4982415;28;20017;-83
2021/08/01 05:16:27;;;;;;;2.63;2.20;;;;;;;10.83;86.65;90248.31;4997849;28;20037;-83
2021/08/01 05:19:03;;;;;;;3.75;2.38;;;;;;;10.98;86.33;90252.69;4993682;28;20582;-83
2021/08/01 05:21:39;;;;;;;4.07;2.50;;;;;;;11.03;86.41;90248.31;4982510;28;20033;-83
2021/08/01 05:24:13;;;;;;;2.65;2.05;;;;;;;11.03;86.05;90248.31;4997668;28;20108;-84
2021/08/01 05:26:47;;;;;;;5.10;2.20;;;;;;;10.98;87.60;90252.69;4996618;28;20025;-83
2021/08/01 05:29:18;;;;;;;3.38;2.08;;;;;;;11.06;86.24;90255.41;4998256;28;20037;-83
2021/08/01 05:31:55;;;;;;;5.32;2.10;;;;;;;11.06;85.87;90260.63;4980986;28;20014;-82
2021/08/01 05:34:28;;;;;;;4.28;2.20;;;;;;;11.08;86.51;90250.63;5014304;28;20026;-82
2021/08/01 05:36:59;;;;;;;3.70;1.95;;;;;;;11.08;86.14;90258.44;4997421;28;20026;-82
2021/08/01 05:39:43;;;;;;;4.25;2.20;;;;;;;11.15;85.26;90248.13;4983428;28;20054;-83
2021/08/01 05:42:15;;;;;;;2.30;2.00;;;;;;;11.01;86.09;90249.38;4997875;28;20030;-84
2021/08/01 05:44:47;;;;;;;6.07;2.35;;;;;;;11.08;85.65;90258.44;4982276;28;20033;-84
2021/08/01 05:47:22;;;;;;;5.00;2.90;;;;;;;11.08;87.37;90253.22;4997889;28;20017;-83
2021/08/01 05:49:58;;;;;;;5.43;1.95;;;;;;;11.23;87.38;90262.78;4997168;28;20056;-83
2021/08/01 05:52:37;;;;;;;3.30;2.35;;;;;;;11.16;86.84;90270.50;5015301;28;20026;-82
2021/08/01 05:55:13;;;;;;;4.25;2.35;;;;;;;11.22;85.67;90274.34;5014030;28;20030;-83
2021/08/01 05:57:47;;;;;;;2.97;1.92;;;;;;;11.31;84.67;90272.25;4980777;28;20034;-82
2021/08/01 06:00:23;;;;;;;4.82;2.20;;;;;;;11.42;84.27;90272.44;4996031;28;20022;-82
2021/08/01 06:03:04;;;;;;;5.28;2.30;;;;;;;11.26;84.16;90269.94;4997581;28;20076;-82
2021/08/01 06:05:36;;;;;;;4.28;2.30;;;;;;;11.31;84.82;90266.28;4996549;28;20026;-84
2021/08/01 06:08:05;;;;;;;3.78;2.53;;;;;;;11.19;86.16;90273.16;4995428;28;20025;-85
2021/08/01 06:10:43;;;;;;;3.42;2.20;;;;;;;11.18;84.99;90276.13;4979515;28;20028;-86
2021/08/01 06:13:17;;;;;;;4.47;2.40;;;;;;;11.22;85.32;90276.94;4981443;28;20022;-85
2021/08/01 06:15:55;;;;;;;3.38;2.17;;;;;;;11.20;85.63;90277.31;4998062;28;20025;-85
2021/08/01 06:18:31;;;;;;;5.00;2.55;;;;;;;11.19;86.68;90280.97;4984121;28;20040;-84
2021/08/01 06:21:29;;;;;;;3.78;2.08;;;;;;;11.23;86.00;90286.25;5026383;28;20108;-85
2021/08/01 06:24:00;;;;;;;4.75;2.22;;;;;;;11.38;84.98;90285.44;5011868;28;20034;-85
2021/08/01 06:26:28;;;;;;;3.10;2.10;;;;;;;11.28;85.00;90288.59;4987482;28;20025;-85
2021/08/01 06:29:00;;;;;;;4.35;2.10;;;;;;;11.21;84.87;90289.22;5001408;28;20037;-85
2021/08/01 06:31:34;;;;;;;3.72;2.22;;;;;;;11.24;84.71;90277.34;4986022;28;20027;-85
2021/08/01 06:34:02;;;;;;;;;;;;;;;11.21;85.91;90278.81;4972480;28;20089;-84
2021/08/01 06:36:42;;;;;;;4.18;2.38;;;;;;;11.23;85.74;90286.25;5001717;28;19929;-84
2021/08/01 06:39:16;;;;;;;3.47;2.20;;;;;;;11.22;86.35;90289.97;4985409;28;20061;-85
2021/08/01 06:41:49;;;;;;;4.88;2.17;;;;;;;11.37;84.61;90290.97;4985495;28;20494;-84
2021/08/01 06:44:24;;;;;;;3.13;1.83;;;;;;;11.47;84.76;90298.97;4969369;28;20038;-84
2021/08/01 06:47:01;;;;;;;3.88;2.10;;;;;;;11.43;85.42;90290.34;4969585;28;20022;-86
2021/08/01 06:49:36;;;;;;;3.58;2.10;;;;;;;11.40;85.37;90288.44;4985196;28;20749;-86
2021/08/01 06:52:13;;;;;;;3.42;2.20;;;;;;;11.46;84.64;90294.13;4985004;28;20022;-86
2021/08/01 06:54:47;;;;;;;6.35;2.10;;;;;;;11.53;83.74;90288.28;4970450;28;20022;-85
2021/08/01 06:57:21;;;;;;;;;;;;;;;11.60;83.95;90293.59;4985942;28;20030;-86
2021/08/01 06:59:53;;;;;;;3.25;2.15;;;;;;;11.62;84.21;90292.13;5002831;28;20000;-86
2021/08/01 07:02:31;;;;;;;2.92;1.63;;;;;;;11.67;82.81;90291.84;4996305;28;20026;-84
2021/08/01 07:05:04;;;;;;;3.33;1.90;;;;;;;11.61;82.38;90289.88;5043678;23;20045;-89
2021/08/01 07:07:44;;;;;;;3.50;1.88;;;;;;;11.61;82.56;90308.16;5002605;28;20017;-88
2021/08/01 07:10:16;;;;;;;3.10;2.00;;;;;;;11.48;82.15;90302.34;5001016;28;20034;-88
2021/08/01 07:12:45;;;;;;;4.15;1.73;;;;;;;11.43;82.67;90305.25;4979432;28;20084;-87
2021/08/01 07:15:17;;;;;;;3.10;2.20;;;;;;;11.56;83.78;90313.66;4970714;28;20070;-88
2021/08/01 07:17:47;;;;;;;6.97;2.13;;;;;;;11.51;82.52;90313.94;4951708;28;20011;-89
2021/08/01 07:20:19;;;;;;;5.65;2.83;;;;;;;11.54;82.05;90321.09;5008652;28;20038;-88
2021/08/01 07:22:45;;;;;;;3.47;1.98;;;;;;;11.48;83.27;90318.78;4992497;28;20603;-87
2021/08/01 07:25:19;;;;;;;3.05;1.75;;;;;;;11.63;80.86;90319.00;4980106;28;20026;-88
2021/08/01 07:27:44;;;;;;;4.85;2.28;;;;;;;11.56;82.10;90326.72;4981585;28;20390;-87
2021/08/01 07:30:16;;;;;;;3.20;1.77;;;;;;;11.32;84.59;90323.31;4981349;28;20041;-87
2021/08/01 07:32:44;;;;;;;4.47;1.80;;;;;;;11.41;82.87;90331.69;4978078;28;20037;-87
2021/08/01 07:35:09;;;;;;;4.50;2.40;;;;;;;11.35;83.13;90325.25;4978299;28;20026;-88
2021/08/01 07:37:36;;;;;;;4.25;1.98;;;;;;;11.39;83.36;90320.09;4979887;28;20029;-88
2021/08/01 07:40:07;;;;;;;3.03;1.90;;;;;;;11.39;83.91;90327.91;4976455;28;20033;-87
2021/08/01 07:42:44;;;;;;;11.95;2.10;;;;;;;11.50;82.11;90331.47;4978606;28;20162;-87
2021/08/01 07:45:30;;;;;;;4.43;1.98;;;;;;;11.49;81.91;90330.72;4961090;28;20380;-87
2021/08/01 07:48:00;;;;;;;3.92;2.08;;;;;;;11.47;82.40;90332.16;4963326;28;20041;-88
2021/08/01 07:50:27;;;;;;;5.10;2.00;;;;;;;11.49;83.20;90335.94;4977457;28;20030;-88
2021/08/01 07:52:53;;;;;;;5.20;2.20;;;;;;;11.57;82.20;90341.25;4977614;28;20058;-87
2021/08/01 07:55:23;;;;;;;4.57;1.92;;;;;;;11.76;82.64;90349.03;4991914;28;20113;-87
2021/08/01 07:57:52;;;;;;;2.92;1.80;;;;;;;11.94;82.25;90346.72;4976828;28;20023;-87
2021/08/01 08:00:23;;;;;;;3.88;2.08;;;;;;;11.81;83.04;90340.19;4977895;28;20077;-87
2021/08/01 08:02:49;;;;;;;3.25;2.08;;;;;;;11.84;83.30;90348.09;4977037;28;20403;-87
2021/08/01 08:05:15;;;;;;;6.43;2.40;;;;;;;11.76;83.43;90340.44;4970538;28;20531;-87
2021/08/01 08:07:41;;;;;;;4.18;2.33;;;;;;;11.79;82.94;90348.34;4975524;28;20026;-88
2021/08/01 08:10:10;;;;;;;3.83;2.25;;;;;;;11.71;82.98;90344.13;4954620;28;20029;-87
2021/08/01 08:12:36;;;;;;;3.10;2.17;;;;;;;11.72;83.33;90348.97;4959103;28;20029;-87
2021/08/01 08:15:13;;;;;;;3.70;2.60;;;;;;;11.73;82.85;90350.50;4943008;28;20029;-88
2021/08/01 08:17:47;;;;;;;6.50;2.85;;;;;;;11.69;82.21;90346.31;4990814;28;20050;-86
2021/08/01 08:20:20;;;;;;;5.68;2.50;;;;;;;11.77;84.42;90355.78;4976188;28;20038;-86
2021/08/01 08:22:46;;;;;;;4.22;2.85;;;;;;;11.89;85.86;90350.41;4991588;28;20032;-86
2021/08/01 08:25:12;;;;;;;4.68;2.50;;;;;;;12.05;85.98;90359.97;4974540;28;20105;-88
2021/08/01 08:27:44;;;;;;;3.95;2.20;;;;;;;12.30;84.99;90362.97;4959833;28;20033;-88
2021/08/01 08:30:16;;;;;;;6.65;2.67;;;;;;;12.28;84.62;90342.41;4975765;28;20105;-88
2021/08/01 08:32:46;;;;;;;3.63;2.35;;;;;;;12.43;84.68;90359.78;4959789;28;20030;-87
2021/08/01 08:35:12;;;;;;;4.47;2.50;;;;;;;12.51;83.97;90357.28;4992878;28;20482;-87
2021/08/01 08:37:43;;;;;;;5.47;2.53;;;;;;;12.50;83.82;90353.16;4961278;28;20030;-87
2021/08/01 08:40:10;;;;;;;5.40;2.72;;;;;;;12.70;84.05;90362.41;4958690;28;20022;-87
2021/08/01 08:42:38;;;;;;;4.13;2.80;;;;;;;12.83;83.44;90361.09;4961437;28;20544;-88
2021/08/01 08:45:18;;;;;;;4.22;2.97;;;;;;;12.88;82.58;90358.16;4961811;28;20022;-89
2021/08/01 08:47:44;;;;;;;4.85;3.08;;;;;;;12.86;82.85;90364.84;4958672;28;20026;-88
2021/08/01 08:50:12;;;;;;;6.38;2.63;;;;;;;12.76;82.33;90368.84;4960529;28;20026;-88
2021/08/01 08:52:39;;;;;;;5.55;2.60;;;;;;;12.88;81.83;90379.06;4976729;28;20022;-88
2021/08/01 08:55:05;;;;;;;4.13;2.10;;;;;;;12.82;79.56;90369.28;4977032;28;20049;-90
2021/08/01 08:57:35;;;;;;;5.00;2.40;;;;;;;12.79;79.37;90365.53;4960807;28;20034;-88
2021/08/01 09:00:14;;;;;;;6.18;2.47;;;;;;;12.68;80.71;90375.06;4958086;28;20250;-88
2021/08/01 09:02:47;;;;;;;6.57;2.50;;;;;;;12.78;80.30;90374.44;4975753;28;20089;-88
2021/08/01 09:05:19;;;;;;;6.10;2.70;;;;;;;12.95;82.77;90375.03;4977625;28;20053;-87
2021/08/01 09:07:46;;;;;;;4.95;2.47;;;;;;;12.82;82.38;90375.25;4966977;28;20015;-86
2021/08/01 09:10:12;;;;;;;3.80;2.25;;;;;;;12.95;80.85;90377.66;4975419;28;20033;-87
2021/08/01 09:12:49;;;;;;;4.97;2.40;;;;;;;12.92;78.85;90371.28;4975364;28;20032;-86
2021/08/01 09:15:23;;;;;;;3.65;2.40;;;;;;;13.00;78.48;90379.94;4975275;28;20053;-86
2021/08/01 09:17:56;;;;;;;5.13;2.35;;;;;;;12.81;78.50;90383.47;4976585;28;20030;-86
2021/08/01 09:20:31;;;;;;;3.22;2.50;;;;;;;12.77;80.40;90380.78;4975334;28;20084;-87
2021/08/01 09:23:05;;;;;;;;;;;;;;;12.75;79.53;90380.38;4954145;28;20030;-86
2021/08/01 09:25:39;;;;;;;4.28;2.28;;;;;;;12.75;82.07;90388.22;5008124;28;19917;-86
2021/08/01 09:28:11;;;;;;;4.22;2.60;;;;;;;12.80;82.75;90387.19;4992471;28;20037;-86
2021/08/01 09:30:55;;;;;;;3.28;2.60;;;;;;;13.03;82.57;90393.06;4975839;28;20115;-89
2021/08/01 09:33:42;;;;;;;3.65;1.98;;;;;;;13.11;81.80;90396.56;4994268;28;20045;-88
2021/08/01 09:36:13;;;;;;;6.13;2.50;;;;;;;13.14;82.21;90395.81;4973411;28;20035;-86
2021/08/01 09:38:46;;;;;;;3.10;2.30;;;;;;;13.19;79.19;90395.53;4992676;28;20053;-86
2021/08/01 09:41:13;;;;;;;3.83;2.40;;;;;;;13.24;80.74;90395.22;4960210;28;20034;-87
2021/08/01 09:44:07;;;;;;;3.28;2.30;;;;;;;13.50;81.66;90393.63;4994479;28;20033;-86
2021/08/01 09:46:52;;;;;;;4.45;2.08;;;;;;;13.51;79.48;90387.31;4980354;28;20098;-87
2021/08/01 09:49:26;;;;;;;4.43;2.17;;;;;;;13.49;76.96;90384.28;4978368;28;20018;-85
2021/08/01 09:52:01;;;;;;;4.30;2.10;;;;;;;13.63;76.84;90387.81;4991905;28;20037;-86
2021/08/01 09:54:49;;;;;;;2.53;1.90;;;;;;;13.62;78.11;90385.56;4972495;28;20122;-87
2021/08/01 09:57:21;;;;;;;3.90;2.38;;;;;;;13.74;80.23;90389.78;4975003;28;20172;-86
2021/08/01 09:59:49;;;;;;;4.00;2.80;;;;;;;13.90;80.30;90387.69;4951963;28;20034;-87
2021/08/01 10:02:17;;;;;;;6.10;2.40;;;;;;;13.96;80.19;90381.03;4957657;28;20089;-85
2021/08/01 10:04:52;;;;;;;3.60;2.00;;;;;;;13.98;79.94;90384.03;4975240;28;20469;-86
2021/08/01 10:07:18;;;;;;;3.05;2.30;;;;;;;14.05;80.70;90378.84;4974427;28;20022;-85
2021/08/01 10:09:47;;;;;;;3.33;2.10;;;;;;;14.21;80.10;90378.63;4975231;28;20038;-86
2021/08/01 10:12:19;;;;;;;5.15;2.10;;;;;;;14.27;80.06;90385.00;4973751;28;20026;-86
2021/08/01 10:14:51;;;;;;;4.18;2.03;;;;;;;14.38;76.98;90376.47;4984987;28;20030;-86
2021/08/01 10:17:23;;;;;;;4.35;2.08;;;;;;;14.32;77.89;90376.06;4952789;28;20022;-86
2021/08/01 10:19:48;;;;;;;4.05;1.83;;;;;;;14.59;75.03;90374.03;4940453;28;20027;-86
2021/08/01 10:22:14;;;;;;;2.63;1.67;;;;;;;14.86;76.46;90382.44;4957009;28;20027;-87
2021/08/01 10:24:50;;;;;;;4.25;1.70;;;;;;;14.86;73.99;90381.69;4940383;28;20041;-86
2021/08/01 10:27:19;;;;;;;3.25;1.70;;;;;;;14.91;75.15;90383.97;4944201;28;20034;-86
2021/08/01 10:30:01;;;;;;;4.25;1.70;;;;;;;14.93;73.83;90379.13;4942487;28;20110;-86
2021/08/01 10:32:29;;;;;;;4.00;1.92;;;;;;;15.01;75.31;90388.53;4945449;28;20027;-86
2021/08/01 10:35:12;;;;;;;3.63;2.05;;;;;;;14.85;76.13;90380.19;4958254;28;20030;-86
2021/08/01 10:37:55;;;;;;;3.10;2.00;;;;;;;14.89;77.02;90379.09;4943580;28;20495;-85
2021/08/01 10:40:26;;;;;;;3.72;2.00;;;;;;;14.70;75.97;90374.88;4973862;28;20128;-86
2021/08/01 10:43:00;;;;;;;3.88;1.90;;;;;;;14.82;74.90;90371.19;4959225;28;20027;-86
2021/08/01 10:45:29;;;;;;;4.22;2.03;;;;;;;14.84;73.02;90374.22;4974902;28;20031;-85
2021/08/01 10:47:56;;;;;;;3.45;2.38;;;;;;;14.73;70.49;90370.75;4976150;28;20545;-86
2021/08/01 10:50:28;;;;;;;5.32;2.40;;;;;;;14.82;72.34;90371.19;4975713;28;20022;-86
2021/08/01 10:53:26;;;;;;;4.45;2.45;;;;;;;15.16;70.65;90363.88;4983543;28;20018;-86
2021/08/01 10:56:14;;;;;;;5.28;2.60;;;;;;;15.48;74.32;90363.25;5008629;28;20030;-85
2021/08/01 10:58:46;;;;;;;4.60;2.33;;;;;;;15.54;75.77;90356.47;5002253;28;20034;-86
2021/08/01 11:01:23;;;;;;;5.05;2.17;;;;;;;15.42;72.21;90364.72;4987092;28;20402;-85
2021/08/01 11:04:30;;;;;;;5.40;2.45;;;;;;;15.27;75.44;90367.28;4989764;28;20406;-85
2021/08/01 11:07:01;;;;;;;4.22;2.33;;;;;;;15.12;71.22;90360.44;4989969;28;20030;-85
2021/08/01 11:09:33;;;;;;;4.75;2.35;;;;;;;14.83;73.98;90360.31;4994406;28;20029;-86
2021/08/01 11:12:25;;;;;;;4.80;2.25;;;;;;;14.93;76.08;90366.75;4976225;28;20379;-86
2021/08/01 11:15:00;;;;;;;3.47;2.08;;;;;;;14.80;75.17;90358.41;5004209;28;20018;-86
2021/08/01 11:17:49;;;;;;;4.03;2.10;;;;;;;14.63;74.98;90356.47;4990299;28;20022;-85
2021/08/01 11:20:21;;;;;;;3.38;1.77;;;;;;;14.70;73.64;90367.00;5001335;28;20509;-85
2021/08/01 11:22:54;;;;;;;3.40;1.92;;;;;;;14.40;76.21;90366.41;5007001;28;20026;-86
2021/08/01 11:25:32;;;;;;;3.97;1.90;;;;;;;14.31;75.56;90359.59;4988529;28;20117;-86
2021/08/01 11:28:18;;;;;;;3.00;1.77;;;;;;;14.31;75.42;90364.84;4990658;28;20019;-85
2021/08/01 11:31:01;;;;;;;3.53;1.90;;;;;;;14.44;75.20;90360.06;4989716;28;20090;-86
2021/08/01 11:33:54;;;;;;;4.82;1.80;;;;;;;14.30;75.37;90358.06;4986835;28;20027;-86
2021/08/01 11:36:30;;;;;;;7.47;2.00;;;;;;;14.15;75.58;90364.34;4955839;28;20030;-86
2021/08/01 11:39:03;;;;;;;4.55;2.38;;;;;;;14.22;76.46;90364.41;4969260;28;20022;-85
2021/08/01 11:41:41;;;;;;;3.38;1.75;;;;;;;14.13;76.44;90363.19;4955946;28;20098;-86
2021/08/01 11:44:21;;;;;;;2.90;2.00;;;;;;;14.05;77.44;90367.63;4958485;28;20027;-86
2021/08/01 11:47:03;;;;;;;3.70;2.15;;;;;;;14.19;77.12;90367.72;4970474;28;20030;-86
2021/08/01 11:49:46;;;;;;;2.92;2.25;;;;;;;14.21;77.50;90370.75;4954197;28;20087;-86
2021/08/01 11:52:43;;;;;;;3.55;2.15;;;;;;;14.21;77.97;90360.28;4969994;28;20106;-86
2021/08/01 11:55:22;;;;;;;2.95;2.10;;;;;;;14.37;76.94;90357.38;4959790;28;20019;-86
2021/08/01 11:58:01;;;;;;;5.20;2.50;;;;;;;14.06;78.59;90359.41;4957411;28;20054;-86
2021/08/01 12:00:44;;;;;;;4.70;2.10;;;;;;;14.16;77.54;90367.72;4958855;28;20022;-86
2021/08/01 12:03:19;;;;;;;2.70;2.13;;;;;;;14.08;76.79;90366.91;4955267;28;20027;-86
2021/08/01 12:05:50;;;;;;;3.40;2.22;;;;;;;13.84;79.62;90373.41;4953517;28;20031;-86
2021/08/01 12:08:40;;;;;;;2.83;2.10;;;;;;;14.03;77.57;90370.63;4960533;28;20031;-86
2021/08/01 12:11:23;;;;;;;3.65;2.53;;;;;;;13.76;78.92;90374.47;4956524;28;20034;-85